Time;durP1;ratioP1;P1;durP2;ratioP2;P2;SDS_P1;SDS_P2;PMS_P1;PMS_P2;Temp;Humidity;BMP_temperature;BMP_pressure;BME280_temperature;BME280_humidity;BME280_pressure;Samples;Min_cycle;Max_cycle;Signal;HPM_P1;HPM_P2
2023/09/12 00:00:46;;;;;;;3.92;2.60;;;;;;;17.33;46.97;95145.59;4894691;29;20039;-89
2023/09/12 00:03:12;;;;;;;4.43;2.90;;;;;;;17.22;47.42;95141.34;4912205;29;20192;-87
2023/09/12 00:05:37;;;;;;;6.53;3.40;;;;;;;17.22;47.54;95149.69;4909930;29;20566;-88
2023/09/12 00:08:03;;;;;;;7.53;3.22;;;;;;;17.14;47.72;95142.94;4894717;29;20040;-87
2023/09/12 00:10:29;;;;;;;7.00;3.10;;;;;;;17.13;47.50;95148.97;4910370;29;20032;-88
2023/09/12 00:12:55;;;;;;;5.13;3.03;;;;;;;17.14;47.72;95151.28;4894648;29;20036;-88
2023/09/12 00:15:21;;;;;;;4.55;3.05;;;;;;;17.09;47.92;95140.06;4879159;29;20055;-86
2023/09/12 00:17:48;;;;;;;5.13;2.78;;;;;;;17.14;47.95;95148.50;4910326;29;20039;-88
2023/09/12 00:20:14;;;;;;;7.55;3.35;;;;;;;17.13;48.07;95143.44;4910799;29;20040;-89
2023/09/12 00:22:39;;;;;;;5.45;3.05;;;;;;;17.10;48.25;95147.94;4909842;29;20027;-87
2023/09/12 00:25:05;;;;;;;4.32;2.80;;;;;;;17.07;48.24;95151.66;4894929;29;20101;-87
2023/09/12 00:27:30;;;;;;;5.20;3.00;;;;;;;17.01;48.27;95147.22;4894485;29;20096;-88
2023/09/12 00:29:56;;;;;;;5.72;3.15;;;;;;;16.96;48.47;95143.09;4910003;29;20439;-89
2023/09/12 00:32:21;;;;;;;6.35;2.70;;;;;;;16.91;48.62;95146.50;4910317;29;20110;-87
2023/09/12 00:34:47;;;;;;;7.57;2.95;;;;;;;16.90;48.56;95156.09;4893855;29;20035;-87
2023/09/12 00:37:12;;;;;;;6.80;3.80;;;;;;;16.82;48.77;95144.59;4911360;29;20039;-88
2023/09/12 00:39:38;;;;;;;6.85;4.25;;;;;;;16.85;48.87;95159.50;4931505;29;20118;-87
2023/09/12 00:42:03;;;;;;;7.18;3.20;;;;;;;16.78;49.17;95162.66;4934421;29;20031;-88
2023/09/12 00:44:29;;;;;;;8.00;3.42;;;;;;;16.70;49.43;95159.44;4915796;29;20478;-88
2023/09/12 00:46:54;;;;;;;7.28;2.95;;;;;;;16.66;49.52;95161.59;4916519;29;20543;-88
2023/09/12 00:49:22;;;;;;;6.47;3.45;;;;;;;16.66;49.60;95162.38;4916136;29;20043;-86
2023/09/12 00:51:48;;;;;;;5.43;2.97;;;;;;;16.65;49.26;95166.41;4916040;29;20033;-88
2023/09/12 00:54:14;;;;;;;9.93;5.07;;;;;;;16.54;49.50;95168.16;4932933;29;20063;-86
2023/09/12 00:56:40;;;;;;;7.80;2.85;;;;;;;16.54;49.61;95171.69;4932322;29;20126;-87
2023/09/12 00:59:05;;;;;;;6.38;3.28;;;;;;;16.41;49.52;95171.16;4932777;29;20047;-88
2023/09/12 01:01:31;;;;;;;3.92;2.83;;;;;;;16.38;49.71;95174.84;4916514;29;20023;-88
2023/09/12 01:03:57;;;;;;;7.10;4.90;;;;;;;16.39;49.82;95181.94;4932617;29;20035;-87
2023/09/12 01:06:26;;;;;;;5.00;2.90;;;;;;;16.32;50.11;95176.72;4932492;29;20024;-88
2023/09/12 01:08:51;;;;;;;4.50;3.08;;;;;;;16.26;50.21;95173.81;4917323;29;20047;-87
2023/09/12 01:11:17;;;;;;;7.30;3.00;;;;;;;16.27;50.30;95188.44;4933310;29;20023;-86
2023/09/12 01:13:43;;;;;;;5.93;2.70;;;;;;;16.24;50.39;95187.41;4916549;29;20039;-87
2023/09/12 01:16:08;;;;;;;5.20;2.78;;;;;;;16.20;50.45;95184.78;4916942;29;20126;-86
2023/09/12 01:18:34;;;;;;;4.88;2.70;;;;;;;16.13;50.49;95187.13;4932146;29;20015;-89
2023/09/12 01:21:21;;;;;;;7.85;3.15;;;;;;;16.11;50.54;95190.34;4916836;29;20023;-88
2023/09/12 01:24:02;;;;;;;6.22;3.05;;;;;;;16.02;50.95;95184.06;4932200;29;20038;-87
2023/09/12 01:26:44;;;;;;;6.50;2.85;;;;;;;16.02;51.16;95184.84;4949500;29;20024;-88
2023/09/12 01:29:12;;;;;;;5.55;3.00;;;;;;;16.03;51.19;95191.91;4916396;29;20114;-88
2023/09/12 01:31:39;;;;;;;4.90;3.17;;;;;;;15.98;51.05;95189.00;4916312;29;20027;-86
2023/09/12 01:34:11;;;;;;;5.43;2.95;;;;;;;15.91;51.31;95190.88;4916565;29;20031;-88
2023/09/12 01:36:37;;;;;;;7.22;3.28;;;;;;;15.92;51.29;95186.09;4932043;29;20047;-88
2023/09/12 01:39:02;;;;;;;4.55;2.75;;;;;;;15.90;51.27;95181.03;4932311;29;20058;-87
2023/09/12 01:41:29;;;;;;;3.85;2.97;;;;;;;15.91;51.29;95187.34;4932271;29;20197;-88
2023/09/12 01:43:54;;;;;;;4.90;2.85;;;;;;;15.88;51.52;95185.47;4932201;29;20031;-86
2023/09/12 01:46:21;;;;;;;5.03;2.90;;;;;;;15.86;51.58;95194.28;4916313;29;20031;-86
2023/09/12 01:48:50;;;;;;;4.95;3.00;;;;;;;15.88;51.44;95188.25;4916164;29;20031;-88
2023/09/12 01:51:17;;;;;;;4.03;2.83;;;;;;;15.78;51.59;95183.97;4932988;29;20028;-89
2023/09/12 01:53:45;;;;;;;5.63;2.80;;;;;;;15.75;51.90;95187.66;4932023;29;20047;-88
2023/09/12 01:56:11;;;;;;;6.45;3.25;;;;;;;15.72;51.93;95186.59;4916390;29;20031;-86
2023/09/12 01:58:36;;;;;;;9.35;3.20;;;;;;;15.73;51.81;95195.69;4931896;29;20490;-88
2023/09/12 02:01:02;;;;;;;6.75;3.20;;;;;;;15.71;51.94;95195.38;4916249;29;20047;-88
2023/09/12 02:03:27;;;;;;;5.72;3.15;;;;;;;15.69;51.85;95197.84;4952480;28;20027;-88
2023/09/12 02:05:52;;;;;;;6.22;3.33;;;;;;;15.70;51.84;95202.16;4935151;29;20409;-86
2023/09/12 02:08:18;;;;;;;5.60;3.13;;;;;;;15.67;51.88;95192.78;4934775;29;20027;-88
2023/09/12 02:10:43;;;;;;;7.15;3.38;;;;;;;15.64;52.31;95200.00;4951411;28;20027;-88
2023/09/12 02:13:09;;;;;;;5.30;2.70;;;;;;;15.59;52.22;95194.28;4934666;29;20091;-86
2023/09/12 02:15:34;;;;;;;3.90;3.00;;;;;;;15.53;52.48;95202.44;4919514;29;20086;-87
2023/09/12 02:18:00;;;;;;;5.72;3.40;;;;;;;15.51;52.44;95193.06;4935369;29;20078;-87
2023/09/12 02:20:25;;;;;;;9.60;3.78;;;;;;;15.47;52.26;95192.44;4952989;29;20031;-87
2023/09/12 02:22:50;;;;;;;5.65;2.97;;;;;;;15.37;52.44;95177.84;4952310;29;20062;-84
2023/09/12 02:25:16;;;;;;;10.60;3.95;;;;;;;15.40;52.19;95188.75;4935122;29;20027;-86
2023/09/12 02:27:41;;;;;;;5.22;3.20;;;;;;;15.35;52.46;95194.91;4951792;29;20077;-85
2023/09/12 02:30:07;;;;;;;4.53;3.00;;;;;;;15.31;52.46;95196.28;4934897;29;20121;-87
2023/09/12 02:32:32;;;;;;;5.90;3.25;;;;;;;15.28;52.65;95200.00;4936147;29;20074;-87
2023/09/12 02:34:58;;;;;;;7.53;3.28;;;;;;;15.27;52.29;95198.47;4936664;29;20047;-87
2023/09/12 02:37:24;;;;;;;4.95;3.00;;;;;;;15.21;52.64;95203.06;4934905;29;20127;-85
2023/09/12 02:39:49;;;;;;;4.93;3.55;;;;;;;15.15;52.45;95197.38;4952395;29;20035;-86
2023/09/12 02:42:14;;;;;;;5.85;3.35;;;;;;;15.18;52.42;95195.66;4951989;29;20027;-87
2023/09/12 02:44:40;;;;;;;9.93;3.58;;;;;;;15.13;52.46;95195.03;4934764;29;20026;-87
2023/09/12 02:47:05;;;;;;;4.60;3.33;;;;;;;15.14;52.43;95202.16;4918752;29;20031;-85
2023/09/12 02:49:31;;;;;;;10.80;4.03;;;;;;;15.11;52.75;95203.06;4934862;29;20442;-87
2023/09/12 02:51:56;;;;;;;5.63;3.00;;;;;;;15.16;52.55;95195.38;4919600;29;20526;-88
2023/09/12 02:54:21;;;;;;;7.15;3.35;;;;;;;15.10;52.83;95200.75;4934601;29;20277;-87
2023/09/12 02:56:47;;;;;;;4.88;3.38;;;;;;;15.07;52.71;95196.88;4934847;29;20146;-87
2023/09/12 02:59:12;;;;;;;5.07;3.28;;;;;;;14.96;52.91;95188.25;4934326;29;20019;-86
2023/09/12 03:01:37;;;;;;;7.45;3.63;;;;;;;15.02;52.67;95203.03;4934342;29;20035;-86
2023/09/12 03:04:03;;;;;;;6.18;3.47;;;;;;;15.00;52.83;95197.19;4934631;29;20027;-86
2023/09/12 03:06:29;;;;;;;5.30;3.67;;;;;;;14.99;52.87;95194.88;4917797;29;20035;-88
2023/09/12 03:08:55;;;;;;;7.20;3.28;;;;;;;14.94;52.86;95189.97;4934306;29;20041;-87
2023/09/12 03:11:20;;;;;;;6.72;3.40;;;;;;;14.95;53.03;95197.03;4933978;29;20027;-90
2023/09/12 03:13:46;;;;;;;12.35;3.85;;;;;;;14.93;53.23;95199.50;4934008;29;20155;-88
2023/09/12 03:16:12;;;;;;;6.78;3.70;;;;;;;14.85;53.32;95191.50;4934039;29;20028;-87
2023/09/12 03:18:38;;;;;;;7.13;3.67;;;;;;;14.88;53.47;95198.09;4918133;29;20056;-83
2023/09/12 03:21:03;;;;;;;9.23;3.97;;;;;;;14.87;53.31;95202.88;4917886;29;20114;-86
2023/09/12 03:23:28;;;;;;;5.78;3.35;;;;;;;14.83;53.30;95201.47;4949924;29;20051;-86
2023/09/12 03:25:54;;;;;;;11.63;3.75;;;;;;;14.80;53.28;95196.88;4933019;29;20114;-84
2023/09/12 03:28:19;;;;;;;10.57;3.88;;;;;;;14.82;53.35;95205.47;4932399;29;20047;-84
2023/09/12 03:30:45;;;;;;;10.93;4.10;;;;;;;14.81;53.57;95204.69;4917725;29;20530;-86
2023/09/12 03:33:10;;;;;;;6.70;3.88;;;;;;;14.78;53.50;95202.06;4933213;29;20115;-86
2023/09/12 03:35:36;;;;;;;13.13;4.60;;;;;;;14.79;53.59;95206.38;4917910;29;20031;-86
2023/09/12 03:38:01;;;;;;;7.13;4.35;;;;;;;14.80;53.61;95203.16;4933598;29;20027;-86
2023/09/12 03:40:30;;;;;;;9.20;4.32;;;;;;;14.83;53.50;95207.00;4933796;29;20118;-86
2023/09/12 03:42:56;;;;;;;10.38;5.47;;;;;;;14.76;53.64;95201.75;4933581;29;20106;-85
2023/09/12 03:45:22;;;;;;;9.52;4.20;;;;;;;14.74;53.74;95204.22;4949765;29;20200;-87
2023/09/12 03:47:47;;;;;;;10.70;4.30;;;;;;;14.71;53.71;95202.38;4917596;29;20030;-86
2023/09/12 03:50:14;;;;;;;7.93;4.25;;;;;;;14.69;53.75;95208.38;4932786;29;20059;-85
2023/09/12 03:52:39;;;;;;;11.70;4.10;;;;;;;14.68;53.89;95201.28;4917377;29;20031;-84
2023/09/12 03:55:05;;;;;;;12.07;4.20;;;;;;;14.65;53.84;95210.50;4949899;29;20032;-85
2023/09/12 03:57:31;;;;;;;10.13;4.03;;;;;;;14.60;53.86;95202.78;4932614;29;20405;-83
2023/09/12 03:59:57;;;;;;;9.70;3.92;;;;;;;14.61;53.96;95205.09;4932919;29;20035;-86
2023/09/12 04:02:22;;;;;;;10.50;4.07;;;;;;;14.58;53.85;95211.56;4916721;29;20441;-85
2023/09/12 04:04:47;;;;;;;9.65;3.78;;;;;;;14.51;54.08;95205.56;4950251;29;20029;-85
2023/09/12 04:07:13;;;;;;;9.38;4.05;;;;;;;14.52;54.18;95204.31;4932293;29;20466;-85
2023/09/12 04:09:38;;;;;;;11.93;3.90;;;;;;;14.50;54.02;95204.75;4949519;28;20042;-88
2023/09/12 04:12:04;;;;;;;10.38;4.20;;;;;;;14.47;54.28;95211.22;4931808;29;20062;-85
2023/09/12 04:14:29;;;;;;;9.30;4.88;;;;;;;14.44;54.29;95203.00;4932693;29;20027;-86
2023/09/12 04:16:55;;;;;;;11.88;4.57;;;;;;;14.49;54.24;95213.50;4932604;29;20113;-87
2023/09/12 04:19:20;;;;;;;9.15;4.18;;;;;;;14.47;54.11;95213.97;4950103;29;20031;-87
2023/09/12 04:21:46;;;;;;;6.95;4.20;;;;;;;14.45;54.30;95215.63;4932946;29;20577;-88
2023/09/12 04:24:11;;;;;;;11.95;4.10;;;;;;;14.50;54.25;95215.81;4917877;29;20114;-90
2023/09/12 04:26:37;;;;;;;9.48;4.25;;;;;;;14.45;54.25;95216.41;4951121;28;20027;-87
2023/09/12 04:29:02;;;;;;;8.93;4.28;;;;;;;14.44;54.29;95214.84;4931236;29;20513;-86
2023/09/12 04:31:27;;;;;;;13.73;4.85;;;;;;;14.41;54.38;95212.25;4932110;29;20142;-85
2023/09/12 04:33:53;;;;;;;7.70;4.30;;;;;;;14.43;54.55;95220.84;4931796;29;20035;-86
2023/09/12 04:36:19;;;;;;;10.10;4.78;;;;;;;14.34;54.76;95213.28;4932349;29;20047;-89
2023/09/12 04:38:45;;;;;;;16.73;4.93;;;;;;;14.40;54.72;95225.28;4916255;29;20031;-87
2023/09/12 04:41:15;;;;;;;15.13;5.15;;;;;;;14.40;54.58;95225.28;4932594;29;20031;-87
2023/09/12 04:43:40;;;;;;;13.23;5.03;;;;;;;14.41;54.32;95228.84;4916054;29;20031;-86
2023/09/12 04:46:06;;;;;;;17.67;5.22;;;;;;;14.35;54.53;95226.66;4931577;29;20033;-87
2023/09/12 04:48:31;;;;;;;13.93;5.20;;;;;;;14.38;54.48;95230.50;4931507;29;20371;-87
2023/09/12 04:50:57;;;;;;;11.18;5.25;;;;;;;14.42;54.63;95235.91;4930659;29;20034;-87
2023/09/12 04:53:22;;;;;;;13.02;4.65;;;;;;;14.41;54.44;95229.59;4931980;29;20399;-86
2023/09/12 04:55:48;;;;;;;10.70;5.20;;;;;;;14.43;54.55;95235.44;4948239;29;20027;-87
2023/09/12 04:58:13;;;;;;;8.38;4.82;;;;;;;14.47;54.63;95238.88;4931866;29;20019;-86
2023/09/12 05:00:39;;;;;;;9.93;5.88;;;;;;;14.49;54.65;95233.66;4914883;29;20059;-85
2023/09/12 05:03:05;;;;;;;16.10;6.07;;;;;;;14.50;54.88;95226.13;4931453;29;20023;-87
2023/09/12 05:05:30;;;;;;;11.95;5.70;;;;;;;14.55;54.76;95237.34;4930895;29;20027;-86
2023/09/12 05:07:56;;;;;;;10.45;5.18;;;;;;;14.50;54.74;95224.13;4930291;29;20031;-86
2023/09/12 05:10:21;;;;;;;10.73;5.00;;;;;;;14.60;54.77;95233.22;4931247;29;20182;-84
2023/09/12 05:12:46;;;;;;;9.57;4.97;;;;;;;14.64;54.67;95225.56;4947791;29;20044;-87
2023/09/12 05:15:12;;;;;;;11.77;5.50;;;;;;;14.68;54.70;95228.97;4931482;29;20491;-86
2023/09/12 05:17:37;;;;;;;9.50;5.28;;;;;;;14.74;54.79;95238.22;4948125;29;20038;-85
2023/09/12 05:20:06;;;;;;;12.95;4.63;;;;;;;14.76;54.69;95246.03;4931309;29;20187;-85
2023/09/12 05:22:32;;;;;;;10.95;5.07;;;;;;;14.79;54.66;95234.03;4914255;29;20115;-84
2023/09/12 05:24:57;;;;;;;15.85;5.40;;;;;;;14.82;54.54;95235.91;4930428;29;20024;-85
2023/09/12 05:27:22;;;;;;;8.88;4.75;;;;;;;14.89;54.34;95230.06;4930846;29;20034;-85
2023/09/12 05:29:48;;;;;;;10.80;5.03;;;;;;;14.96;54.31;95237.31;4930172;29;20111;-85
2023/09/12 05:32:15;;;;;;;11.95;5.65;;;;;;;15.01;54.32;95233.94;4931412;29;20039;-84
2023/09/12 05:34:40;;;;;;;9.50;5.43;;;;;;;15.08;54.39;95242.75;4930576;29;20102;-85
2023/09/12 05:37:06;;;;;;;13.32;6.00;;;;;;;15.17;54.60;95243.97;4932245;29;20198;-85
2023/09/12 05:39:32;;;;;;;12.00;6.25;;;;;;;15.21;54.41;95241.84;4934844;29;20023;-86
2023/09/12 05:41:57;;;;;;;13.75;6.85;;;;;;;15.28;54.29;95249.84;4934411;29;20031;-85
2023/09/12 05:44:22;;;;;;;12.20;6.03;;;;;;;15.27;53.97;95238.00;4934769;29;20071;-84
2023/09/12 05:46:48;;;;;;;9.73;5.85;;;;;;;15.30;53.61;95234.28;4934112;29;20518;-86
2023/09/12 05:49:14;;;;;;;10.15;5.60;;;;;;;15.43;53.20;95245.25;4934776;29;20023;-86
2023/09/12 05:51:40;;;;;;;9.95;6.13;;;;;;;15.47;53.20;95251.38;4934149;29;20483;-85
2023/09/12 05:54:05;;;;;;;13.48;5.20;;;;;;;15.50;52.77;95244.94;4935167;29;20034;-85
2023/09/12 05:56:31;;;;;;;12.32;6.13;;;;;;;15.57;52.72;95241.09;4934185;29;20530;-84
2023/09/12 05:58:56;;;;;;;11.13;6.03;;;;;;;15.61;52.67;95241.72;4919143;29;20038;-83
2023/09/12 06:01:21;;;;;;;9.63;5.53;;;;;;;15.66;52.79;95241.88;4952670;29;20521;-89
2023/09/12 06:03:47;;;;;;;11.05;6.30;;;;;;;15.75;52.35;95243.09;4934793;29;20074;-87
2023/09/12 06:06:12;;;;;;;7.55;5.25;;;;;;;15.79;52.37;95244.50;4951773;29;20455;-88
2023/09/12 06:08:38;;;;;;;14.82;6.07;;;;;;;15.83;52.05;95238.78;4934305;29;20039;-87
2023/09/12 06:11:03;;;;;;;12.13;5.25;;;;;;;15.93;51.77;95248.63;4934846;29;20035;-88
2023/09/12 06:13:29;;;;;;;14.60;4.57;;;;;;;15.96;51.67;95241.38;4918209;29;20059;-86
2023/09/12 06:15:54;;;;;;;11.50;5.07;;;;;;;16.06;51.36;95249.22;4952891;29;20056;-90
2023/09/12 06:18:20;;;;;;;11.85;5.13;;;;;;;16.12;51.29;95258.47;4953131;29;20061;-88
2023/09/12 06:20:45;;;;;;;9.07;4.68;;;;;;;16.16;51.00;95263.84;4951991;29;20457;-88
2023/09/12 06:23:11;;;;;;;7.07;4.47;;;;;;;16.22;50.88;95258.44;4918970;29;20035;-88
2023/09/12 06:25:36;;;;;;;6.32;3.85;;;;;;;16.28;50.51;95260.09;4935157;29;20086;-87
2023/09/12 06:28:02;;;;;;;9.48;4.28;;;;;;;16.40;50.31;95266.69;4951924;29;20038;-87
2023/09/12 06:30:28;;;;;;;7.45;4.30;;;;;;;16.44;49.76;95268.06;4934350;29;20528;-89
2023/09/12 06:32:53;;;;;;;7.00;4.10;;;;;;;16.49;49.82;95266.69;4918610;29;20078;-88
2023/09/12 06:35:18;;;;;;;9.77;4.35;;;;;;;16.54;49.72;95271.59;4934073;29;20391;-88
2023/09/12 06:37:44;;;;;;;9.27;4.75;;;;;;;16.65;49.76;95271.88;4951862;29;20047;-89
2023/09/12 06:40:10;;;;;;;8.35;4.10;;;;;;;16.73;49.71;95272.31;4918437;29;20388;-88
2023/09/12 06:42:35;;;;;;;7.15;3.70;;;;;;;16.78;49.21;95265.38;4933956;29;20023;-90
2023/09/12 06:45:00;;;;;;;5.97;3.45;;;;;;;16.85;49.01;95262.25;4933864;29;20055;-87
2023/09/12 06:47:26;;;;;;;8.25;4.32;;;;;;;16.86;49.02;95263.78;4933830;28;20437;-89
2023/09/12 06:49:51;;;;;;;9.88;4.00;;;;;;;16.99;48.60;95267.13;4933959;29;20031;-86
2023/09/12 06:52:17;;;;;;;5.75;3.42;;;;;;;17.14;47.93;95273.50;4950416;29;20039;-87
2023/09/12 06:54:42;;;;;;;7.40;3.50;;;;;;;17.22;47.52;95265.59;4951462;29;20059;-88
2023/09/12 06:57:07;;;;;;;5.85;3.72;;;;;;;17.32;47.51;95277.41;4917809;29;20085;-89
2023/09/12 06:59:33;;;;;;;6.72;3.35;;;;;;;17.39;47.31;95268.72;4934323;29;20038;-89
2023/09/12 07:01:59;;;;;;;8.25;3.22;;;;;;;17.39;47.32;95266.72;4917828;29;20035;-87
2023/09/12 07:04:25;;;;;;;7.32;3.40;;;;;;;17.51;46.99;95262.16;4933986;29;20035;-87
2023/09/12 07:06:51;;;;;;;4.57;2.90;;;;;;;17.66;45.82;95276.88;4934510;29;20027;-87
2023/09/12 07:09:16;;;;;;;8.43;3.55;;;;;;;17.76;45.65;95278.34;4949488;29;20421;-88
2023/09/12 07:11:42;;;;;;;5.00;3.30;;;;;;;17.82;45.17;95270.13;4918158;29;20391;-87
2023/09/12 07:14:09;;;;;;;7.60;3.58;;;;;;;17.91;45.58;95280.41;4917654;29;20027;-88
2023/09/12 07:16:35;;;;;;;7.00;3.70;;;;;;;17.96;45.45;95269.41;4918256;29;20059;-87
2023/09/12 07:19:00;;;;;;;6.35;3.70;;;;;;;18.08;45.18;95269.59;4933206;29;20074;-88
2023/09/12 07:21:26;;;;;;;9.20;3.55;;;;;;;18.25;44.81;95274.22;4933251;29;20581;-87
2023/09/12 07:23:52;;;;;;;7.97;3.78;;;;;;;18.35;44.67;95283.25;4933652;29;20089;-86
2023/09/12 07:26:17;;;;;;;6.63;3.80;;;;;;;18.45;44.05;95275.56;4950248;29;20054;-87
2023/09/12 07:28:43;;;;;;;9.32;4.40;;;;;;;18.57;43.57;95268.91;4917700;29;20035;-88
2023/09/12 07:31:08;;;;;;;9.05;3.50;;;;;;;18.73;43.46;95285.16;4932797;29;20035;-89
2023/09/12 07:33:34;;;;;;;8.52;3.97;;;;;;;18.80;43.63;95279.19;4917856;29;20031;-88
2023/09/12 07:36:02;;;;;;;7.07;3.58;;;;;;;18.93;42.83;95281.69;4932734;29;20035;-87
2023/09/12 07:38:29;;;;;;;4.32;3.65;;;;;;;19.05;42.84;95277.81;4934209;29;20030;-89
2023/09/12 07:40:54;;;;;;;6.45;3.42;;;;;;;19.15;42.47;95275.66;4950597;29;20031;-89
2023/09/12 07:43:21;;;;;;;6.55;3.90;;;;;;;19.25;42.07;95271.50;4932643;29;20023;-88
2023/09/12 07:45:46;;;;;;;9.80;4.07;;;;;;;19.37;41.78;95267.59;4933291;29;20178;-88
2023/09/12 07:48:12;;;;;;;8.15;3.80;;;;;;;19.55;40.94;95277.72;4916527;29;20027;-88
2023/09/12 07:50:38;;;;;;;6.18;3.75;;;;;;;19.67;40.78;95264.72;4933108;29;20059;-89
2023/09/12 07:53:04;;;;;;;7.78;3.40;;;;;;;19.73;40.48;95262.75;4916778;29;20028;-88
2023/09/12 07:55:34;;;;;;;7.60;3.35;;;;;;;19.84;40.52;95259.31;4950530;29;20031;-89
2023/09/12 07:57:59;;;;;;;8.77;4.18;;;;;;;19.97;40.05;95258.97;4917756;29;20058;-89
2023/09/12 08:00:25;;;;;;;8.85;3.47;;;;;;;20.13;39.72;95266.75;4932345;29;20121;-89
2023/09/12 08:02:50;;;;;;;7.80;3.30;;;;;;;20.27;39.07;95265.88;4950384;29;20463;-88
2023/09/12 08:05:16;;;;;;;6.20;3.15;;;;;;;20.39;38.81;95270.28;4932153;29;20053;-88
2023/09/12 08:07:41;;;;;;;6.93;3.20;;;;;;;20.52;39.63;95261.53;4950303;29;20094;-88
2023/09/12 08:10:07;;;;;;;7.75;3.60;;;;;;;20.69;39.48;95270.06;4952099;28;20071;-89
2023/09/12 08:12:33;;;;;;;7.13;3.38;;;;;;;20.83;38.86;95263.59;4933377;29;20043;-88
2023/09/12 08:14:59;;;;;;;5.47;3.10;;;;;;;21.03;38.19;95261.94;4933122;29;20126;-89
2023/09/12 08:17:25;;;;;;;5.63;2.90;;;;;;;21.34;35.64;95270.31;4933162;29;20031;-89
2023/09/12 08:19:51;;;;;;;6.25;2.65;;;;;;;21.54;35.16;95269.38;4932788;29;20038;-90
2023/09/12 08:22:17;;;;;;;8.65;2.95;;;;;;;21.68;35.33;95273.28;4916259;29;20085;-89
2023/09/12 08:24:42;;;;;;;7.40;2.92;;;;;;;21.82;35.74;95254.75;4949783;29;20090;-88
2023/09/12 08:27:08;;;;;;;5.38;2.78;;;;;;;22.01;35.27;95264.97;4931876;29;20078;-89
2023/09/12 08:29:34;;;;;;;4.50;2.60;;;;;;;22.29;34.61;95257.94;4932855;29;20082;-90
2023/09/12 08:32:00;;;;;;;7.80;3.35;;;;;;;22.49;34.53;95257.72;4916288;29;20030;-89
2023/09/12 08:34:26;;;;;;;8.13;3.40;;;;;;;22.73;34.11;95254.44;4932525;29;20035;-89
2023/09/12 08:36:52;;;;;;;9.55;3.13;;;;;;;22.98;33.61;95244.25;4916374;29;20070;-89
2023/09/12 08:39:23;;;;;;;7.70;2.65;;;;;;;23.29;32.90;95262.81;4931978;29;20046;-89
2023/09/12 08:41:49;;;;;;;4.97;3.20;;;;;;;23.58;31.77;95253.78;4933007;29;20035;-90
2023/09/12 08:44:15;;;;;;;4.43;1.80;;;;;;;23.75;31.31;95250.19;4932772;29;20035;-90
2023/09/12 08:46:42;;;;;;;5.80;2.45;;;;;;;23.98;31.49;95251.63;4952084;29;20115;-90
2023/09/12 08:49:09;;;;;;;7.35;2.65;;;;;;;24.23;31.38;95248.91;4920658;29;20042;-89
2023/09/12 08:51:35;;;;;;;10.07;4.38;;;;;;;24.50;31.20;95238.81;4931578;29;20023;-86
2023/09/12 08:54:03;;;;;;;8.02;3.88;;;;;;;24.84;30.68;95247.75;4937317;29;20027;-90
2023/09/12 08:56:29;;;;;;;5.00;2.65;;;;;;;25.16;29.95;95248.75;4936630;29;20027;-89
2023/09/12 08:58:55;;;;;;;5.82;2.60;;;;;;;25.51;29.80;95249.16;4937363;29;20038;-89
2023/09/12 09:01:20;;;;;;;6.75;2.72;;;;;;;25.84;29.11;95254.44;4952808;29;20035;-89
2023/09/12 09:03:46;;;;;;;7.45;2.50;;;;;;;26.14;28.50;95248.66;4933107;29;20039;-90
2023/09/12 09:06:12;;;;;;;3.70;2.30;;;;;;;26.47;27.87;95244.63;4932117;29;20454;-89
2023/09/12 09:08:39;;;;;;;4.25;2.00;;;;;;;26.78;26.87;95248.00;4932454;29;20034;-88
2023/09/12 09:11:06;;;;;;;5.10;2.10;;;;;;;26.99;26.20;95248.19;4932054;29;20027;-90
2023/09/12 09:13:32;;;;;;;5.15;2.30;;;;;;;27.21;25.65;95238.59;4936227;29;20027;-89
2023/09/12 09:16:18;;;;;;;5.38;2.38;;;;;;;27.46;25.96;95227.84;4953454;29;20046;-89
2023/09/12 09:19:09;;;;;;;11.13;3.10;;;;;;;27.84;25.23;95236.91;4935858;29;20031;-90
2023/09/12 09:21:36;;;;;;;3.47;2.25;;;;;;;28.09;25.24;95234.56;4953561;29;20106;-89
2023/09/12 09:24:07;;;;;;;6.65;2.30;;;;;;;28.43;24.38;95236.69;4952697;29;20027;-88
2023/09/12 09:27:00;;;;;;;6.65;2.15;;;;;;;28.68;24.73;95228.66;4935949;29;20023;-89
2023/09/12 09:29:25;;;;;;;7.20;2.60;;;;;;;28.96;24.68;95225.16;4937339;29;20042;-90
2023/09/12 09:31:51;;;;;;;4.88;2.78;;;;;;;29.33;24.10;95223.94;4935317;29;20039;-88
2023/09/12 09:34:18;;;;;;;5.85;2.55;;;;;;;29.61;23.04;95220.38;4919791;29;20031;-89
2023/09/12 09:36:46;;;;;;;4.80;2.22;;;;;;;29.90;23.06;95223.94;4934820;29;20523;-89
2023/09/12 09:39:13;;;;;;;4.18;2.53;;;;;;;30.08;22.43;95219.28;4936049;29;20027;-89
2023/09/12 09:41:39;;;;;;;3.33;2.13;;;;;;;30.33;22.41;95220.34;4919174;29;20038;-89
2023/09/12 09:44:08;;;;;;;6.25;2.83;;;;;;;30.50;21.83;95219.06;4936095;29;20031;-89
2023/09/12 09:46:33;;;;;;;8.30;2.72;;;;;;;30.74;22.76;95217.81;4919427;29;20038;-89
2023/09/12 09:48:59;;;;;;;7.35;2.50;;;;;;;31.02;21.31;95214.06;4918811;29;20027;-89
2023/09/12 09:51:25;;;;;;;4.70;2.53;;;;;;;31.27;21.26;95205.78;4919385;29;20472;-89
2023/09/12 09:53:52;;;;;;;4.97;2.10;;;;;;;31.61;21.09;95205.34;4918636;29;20528;-89
2023/09/12 09:56:18;;;;;;;5.13;1.98;;;;;;;31.92;20.85;95208.88;4936005;29;20035;-89
2023/09/12 09:58:56;;;;;;;8.57;2.30;;;;;;;32.15;20.20;95200.28;4935342;29;20016;-89
2023/09/12 10:01:29;;;;;;;5.07;1.98;;;;;;;32.39;19.64;95196.00;4940094;29;20032;-88
2023/09/12 10:03:59;;;;;;;6.93;2.40;;;;;;;32.73;19.84;95201.88;4938207;29;20027;-89
2023/09/12 10:06:25;;;;;;;7.30;2.20;;;;;;;33.05;19.43;95180.41;4935389;29;20059;-90
2023/09/12 10:08:52;;;;;;;5.22;2.50;;;;;;;33.53;19.15;95200.88;4952717;29;20035;-89
2023/09/12 10:11:19;;;;;;;5.78;2.42;;;;;;;33.93;18.46;95187.75;4934622;29;20429;-88
2023/09/12 10:14:05;;;;;;;5.47;2.60;;;;;;;34.40;18.29;95191.53;4919611;29;20019;-87
2023/09/12 10:16:46;;;;;;;5.28;2.17;;;;;;;34.84;17.76;95189.41;4934039;29;20043;-90
2023/09/12 10:19:11;;;;;;;7.20;2.38;;;;;;;35.44;17.29;95189.03;4918633;29;20521;-87
2023/09/12 10:21:56;;;;;;;7.50;2.28;;;;;;;36.20;16.73;95180.41;4952175;29;20031;-88
2023/09/12 10:24:22;;;;;;;3.80;1.98;;;;;;;36.83;15.61;95185.72;4951646;28;20066;-87
2023/09/12 10:26:50;;;;;;;7.88;2.13;;;;;;;37.42;15.00;95183.38;4935092;29;20027;-89
2023/09/12 10:29:16;;;;;;;4.15;2.50;;;;;;;37.82;14.50;95173.91;4934362;29;20027;-89
2023/09/12 10:31:41;;;;;;;6.82;2.65;;;;;;;38.49;14.02;95178.34;4951029;29;20038;-77
2023/09/12 10:34:09;;;;;;;4.65;1.98;;;;;;;39.28;13.75;95176.81;4933503;29;20042;-83
2023/09/12 10:36:38;;;;;;;9.90;2.50;;;;;;;40.12;12.77;95178.94;4929269;29;20035;-85
2023/09/12 10:39:05;;;;;;;6.30;3.88;;;;;;;40.15;12.42;95174.06;4929482;29;20036;-85
2023/09/12 10:41:30;;;;;;;8.02;2.58;;;;;;;40.42;12.61;95168.41;4913930;29;20031;-83
2023/09/12 10:43:57;;;;;;;7.95;2.80;;;;;;;40.86;12.28;95161.53;4930272;29;20028;-86
2023/09/12 10:46:24;;;;;;;8.88;2.58;;;;;;;41.48;12.00;95159.81;4929827;29;20035;-85
2023/09/12 10:48:50;;;;;;;7.13;2.78;;;;;;;42.16;11.56;95164.00;4931265;29;20066;-86
2023/09/12 10:51:19;;;;;;;6.38;2.38;;;;;;;42.84;10.75;95163.00;4929709;29;20027;-86
2023/09/12 10:53:49;;;;;;;4.65;2.22;;;;;;;43.33;10.56;95153.69;4913755;29;20024;-86
2023/09/12 10:56:19;;;;;;;7.20;2.40;;;;;;;43.83;10.21;95162.41;4913833;29;20370;-85
2023/09/12 10:59:14;;;;;;;5.18;2.20;;;;;;;44.40;9.90;95164.81;4913380;29;20038;-86
2023/09/12 11:01:42;;;;;;;5.68;2.00;;;;;;;44.59;9.62;95155.47;4913787;29;20031;-86
2023/09/12 11:04:19;;;;;;;4.05;2.10;;;;;;;44.35;9.81;95155.19;4898170;29;20107;-87
2023/09/12 11:06:49;;;;;;;7.18;2.28;;;;;;;44.51;9.83;95152.22;4930624;29;20094;-86
2023/09/12 11:09:14;;;;;;;5.75;2.33;;;;;;;44.73;9.67;95150.22;4898316;29;20440;-86
2023/09/12 11:12:09;;;;;;;5.40;3.10;;;;;;;44.40;9.68;95145.28;4930200;29;20535;-87
2023/09/12 11:14:37;;;;;;;6.10;2.75;;;;;;;44.07;10.01;95140.25;4906875;29;20055;-87
2023/09/12 11:17:10;;;;;;;7.45;2.28;;;;;;;44.12;9.76;95139.03;4914266;29;20175;-88
2023/09/12 11:19:48;;;;;;;4.60;2.22;;;;;;;44.17;10.07;95131.25;4931392;29;20385;-88
2023/09/12 11:22:27;;;;;;;7.30;3.10;;;;;;;43.83;10.16;95140.00;4914359;29;20109;-87
2023/09/12 11:24:55;;;;;;;7.80;2.83;;;;;;;42.24;11.15;95138.44;4897542;29;20511;-87
2023/09/12 11:27:21;;;;;;;3.78;2.28;;;;;;;41.10;12.32;95127.53;4898999;29;20439;-88
2023/09/12 11:29:47;;;;;;;7.47;3.38;;;;;;;40.45;12.72;95128.97;4913786;29;20059;-88